createdAt,value
2022-08-21T00:01:51.485Z,16.50
2022-08-21T00:04:22.398Z,24.42
2022-08-21T00:06:51.777Z,20.92
2022-08-21T00:09:20.954Z,19.33
2022-08-21T00:11:49.115Z,21.73
2022-08-21T00:14:16.938Z,19.45
2022-08-21T00:16:44.089Z,21.63
2022-08-21T00:19:11.506Z,18.60
2022-08-21T00:21:38.361Z,19.33
2022-08-21T00:24:05.896Z,17.63
2022-08-21T00:26:34.538Z,18.38
2022-08-21T00:29:03.891Z,23.67
2022-08-21T00:31:30.904Z,17.20
2022-08-21T00:34:00.701Z,17.98
2022-08-21T00:36:29.495Z,18.73
2022-08-21T00:38:57.110Z,15.77
2022-08-21T00:41:37.274Z,17.52
2022-08-21T00:44:08.574Z,17.63
2022-08-21T00:46:36.250Z,15.65
2022-08-21T00:49:05.399Z,13.82
2022-08-21T00:51:42.821Z,19.73
2022-08-21T00:54:17.989Z,16.40
2022-08-21T00:56:48.915Z,17.23
2022-08-21T00:59:20.109Z,19.35
2022-08-21T01:01:47.851Z,14.52
2022-08-21T01:04:16.633Z,15.98
2022-08-21T01:06:44.257Z,17.13
2022-08-21T01:09:12.714Z,17.15
2022-08-21T01:11:40.705Z,20.17
2022-08-21T01:14:07.774Z,19.48
2022-08-21T01:16:35.283Z,19.17
2022-08-21T01:19:03.193Z,19.35
2022-08-21T01:21:30.037Z,20.35
2022-08-21T01:23:58.357Z,20.25
2022-08-21T01:26:34.138Z,22.55
2022-08-21T01:29:32.848Z,20.25
2022-08-21T01:32:09.923Z,21.00
2022-08-21T01:34:40.664Z,22.30
2022-08-21T01:37:08.138Z,20.52
2022-08-21T01:39:36.614Z,23.02
2022-08-21T01:42:05.362Z,21.48
2022-08-21T01:44:33.467Z,23.25
2022-08-21T01:47:05.018Z,23.15
2022-08-21T01:49:31.903Z,21.35
2022-08-21T01:51:58.777Z,19.33
2022-08-21T01:54:25.610Z,19.50
2022-08-21T01:56:55.336Z,22.17
2022-08-21T01:59:25.112Z,18.95
2022-08-21T02:01:52.169Z,16.75
2022-08-21T02:04:19.078Z,16.08
2022-08-21T02:06:45.993Z,17.02
2022-08-21T02:09:14.971Z,15.52
2022-08-21T02:11:43.417Z,20.27
2022-08-21T02:14:13.811Z,12.45
2022-08-21T02:16:43.206Z,13.77
2022-08-21T02:19:11.040Z,15.23
2022-08-21T02:21:38.189Z,19.33
2022-08-21T02:24:06.404Z,14.55
2022-08-21T02:26:33.718Z,18.80
2022-08-21T02:29:01.211Z,17.13
2022-08-21T02:31:28.159Z,16.88
2022-08-21T02:33:54.961Z,13.43
2022-08-21T02:36:21.954Z,16.35
2022-08-21T02:38:49.044Z,17.80
2022-08-21T02:41:19.754Z,15.32
2022-08-21T02:43:46.622Z,19.20
2022-08-21T02:46:18.270Z,15.75
2022-08-21T02:48:45.373Z,19.73
2022-08-21T02:51:19.438Z,17.75
2022-08-21T02:53:48.445Z,18.23
2022-08-21T02:56:19.727Z,18.40
2022-08-21T02:58:53.460Z,15.85
2022-08-21T03:01:21.441Z,14.93
2022-08-21T03:03:51.746Z,13.68
2022-08-21T03:06:22.607Z,15.35
2022-08-21T03:08:50.197Z,12.43
2022-08-21T03:11:17.481Z,13.27
2022-08-21T03:13:44.361Z,18.88
2022-08-21T03:16:11.481Z,16.23
2022-08-21T03:18:39.002Z,15.93
2022-08-21T03:21:07.908Z,20.20
2022-08-21T03:23:35.101Z,21.17
2022-08-21T03:26:02.299Z,19.90
2022-08-21T03:28:29.572Z,18.52
2022-08-21T03:30:56.584Z,19.58
2022-08-21T03:33:23.979Z,18.88
2022-08-21T03:36:06.523Z,15.70
2022-08-21T03:38:35.894Z,14.00
2022-08-21T03:41:04.502Z,15.57
2022-08-21T03:43:33.079Z,14.52
2022-08-21T03:46:03.117Z,16.02
2022-08-21T03:48:30.608Z,17.30
2022-08-21T03:50:57.550Z,14.80
2022-08-21T03:53:25.485Z,16.20
2022-08-21T03:55:53.590Z,15.23
2022-08-21T03:58:27.698Z,17.30
2022-08-21T04:00:59.553Z,12.80
2022-08-21T04:03:28.971Z,13.45
2022-08-21T04:05:56.479Z,14.52
2022-08-21T04:08:23.482Z,14.38
2022-08-21T04:10:54.484Z,12.40
2022-08-21T04:13:22.095Z,13.00
2022-08-21T04:15:50.105Z,12.65
2022-08-21T04:18:17.892Z,14.52
2022-08-21T04:20:50.152Z,13.18
2022-08-21T04:23:24.035Z,16.77
2022-08-21T04:25:54.288Z,14.15
2022-08-21T04:28:23.114Z,13.27
2022-08-21T04:30:52.948Z,16.35
2022-08-21T04:33:21.756Z,11.00
2022-08-21T04:35:50.422Z,14.43
2022-08-21T04:38:17.550Z,14.40
2022-08-21T04:40:45.390Z,15.82
2022-08-21T04:43:12.805Z,12.77
2022-08-21T04:45:45.327Z,16.15
2022-08-21T04:48:14.893Z,16.77
2022-08-21T04:51:02.310Z,15.07
2022-08-21T04:53:37.171Z,18.25
2022-08-21T04:56:22.217Z,16.38
2022-08-21T04:58:50.722Z,14.40
2022-08-21T05:01:23.451Z,16.25
2022-08-21T05:03:57.334Z,13.73
2022-08-21T05:06:25.907Z,12.45
2022-08-21T05:09:01.996Z,14.40
2022-08-21T05:11:31.875Z,14.43
2022-08-21T05:13:59.372Z,14.60
2022-08-21T05:16:37.430Z,14.82
2022-08-21T05:19:06.517Z,13.23
2022-08-21T05:21:39.345Z,14.55
2022-08-21T05:24:06.413Z,16.20
2022-08-21T05:26:33.816Z,14.15
2022-08-21T05:29:13.024Z,17.73
2022-08-21T05:31:40.001Z,16.98
2022-08-21T05:34:07.716Z,16.85
2022-08-21T05:36:34.780Z,18.10
2022-08-21T05:39:01.870Z,15.85
2022-08-21T05:41:28.777Z,14.98
2022-08-21T05:43:55.662Z,12.20
2022-08-21T05:46:22.666Z,11.63
2022-08-21T05:48:49.816Z,11.40
2022-08-21T05:51:17.409Z,13.05
2022-08-21T05:53:45.627Z,14.45
2022-08-21T05:56:13.970Z,11.30
2022-08-21T05:58:40.872Z,10.40
2022-08-21T06:01:09.810Z,11.57
2022-08-21T06:03:40.848Z,9.98
2022-08-21T06:06:08.658Z,12.05
2022-08-21T06:08:35.790Z,12.52
2022-08-21T06:11:05.524Z,11.88
2022-08-21T06:13:32.958Z,12.10
2022-08-21T06:16:16.369Z,15.45
2022-08-21T06:18:46.445Z,12.60
2022-08-21T06:21:14.561Z,11.57
2022-08-21T06:23:42.658Z,13.35
2022-08-21T06:26:12.850Z,10.85
2022-08-21T06:28:41.235Z,21.27
2022-08-21T06:31:18.995Z,15.32
2022-08-21T06:33:47.102Z,12.80
2022-08-21T06:36:14.376Z,13.75
2022-08-21T06:38:41.716Z,11.80
2022-08-21T06:41:17.588Z,12.07
2022-08-21T06:43:44.882Z,12.73
2022-08-21T06:46:11.701Z,12.95
2022-08-21T06:48:38.587Z,10.18
2022-08-21T06:51:05.925Z,13.77
2022-08-21T06:53:33.894Z,13.98
2022-08-21T06:56:00.749Z,12.55
2022-08-21T06:58:27.819Z,14.35
2022-08-21T07:01:00.099Z,13.27
2022-08-21T07:03:33.589Z,12.02
2022-08-21T07:06:00.516Z,13.23
2022-08-21T07:08:29.026Z,11.43
2022-08-21T07:11:01.154Z,12.73
2022-08-21T07:13:28.806Z,12.98
2022-08-21T07:15:59.126Z,11.38
2022-08-21T07:18:28.781Z,12.25
2022-08-21T07:20:56.417Z,12.15
2022-08-21T07:23:27.388Z,14.10
2022-08-21T07:25:54.877Z,10.98
2022-08-21T07:28:21.918Z,12.32
2022-08-21T07:30:55.698Z,12.63
2022-08-21T07:33:23.676Z,13.25
2022-08-21T07:35:50.811Z,11.88
2022-08-21T07:38:18.967Z,11.13
2022-08-21T07:40:48.442Z,10.73
2022-08-21T07:43:17.766Z,10.55
2022-08-21T07:45:45.728Z,13.70
2022-08-21T07:48:12.840Z,15.32
2022-08-21T07:50:41.624Z,12.55
2022-08-21T07:53:08.549Z,15.93
2022-08-21T07:55:35.791Z,12.85
2022-08-21T07:58:02.799Z,11.30
2022-08-21T08:00:30.169Z,10.68
2022-08-21T08:02:58.389Z,10.32
2022-08-21T08:05:30.711Z,9.73
2022-08-21T08:07:59.152Z,12.13
2022-08-21T08:10:27.374Z,10.40
2022-08-21T08:12:55.905Z,9.80
2022-08-21T08:15:26.945Z,10.48
2022-08-21T08:17:55.813Z,9.80
2022-08-21T08:20:26.015Z,6.47
2022-08-21T08:22:54.282Z,7.10
2022-08-21T08:25:23.992Z,8.35
2022-08-21T08:27:50.923Z,8.48
2022-08-21T08:30:20.443Z,4.75
2022-08-21T08:32:48.620Z,7.35
2022-08-21T08:35:16.305Z,4.30
2022-08-21T08:37:43.817Z,9.60
2022-08-21T08:41:17.880Z,6.35
2022-08-21T08:43:55.190Z,8.40
2022-08-21T08:46:41.813Z,8.05
2022-08-21T08:49:20.416Z,5.53
2022-08-21T08:51:58.154Z,7.65
2022-08-21T08:55:02.914Z,6.85
2022-08-21T08:57:31.396Z,5.72
2022-08-21T09:00:06.019Z,9.80
2022-08-21T09:02:35.080Z,7.88
2022-08-21T09:05:02.471Z,6.75
2022-08-21T09:08:01.914Z,5.90
2022-08-21T09:10:52.851Z,7.78
2022-08-21T09:14:08.625Z,8.02
2022-08-21T09:17:18.650Z,8.23
2022-08-21T09:19:57.494Z,9.07
2022-08-21T09:22:56.830Z,7.72
2022-08-21T09:25:33.770Z,4.70
2022-08-21T09:28:00.627Z,5.70
2022-08-21T09:30:33.235Z,5.13
2022-08-21T09:33:00.971Z,5.07
2022-08-21T09:35:28.086Z,4.85
2022-08-21T09:38:03.933Z,6.25
2022-08-21T09:40:47.021Z,7.20
2022-08-21T09:43:21.195Z,8.25
2022-08-21T09:45:50.740Z,8.68
2022-08-21T09:48:26.885Z,5.93
2022-08-21T09:51:05.762Z,8.13
2022-08-21T09:53:36.022Z,6.43
2022-08-21T09:56:46.661Z,9.18
2022-08-21T09:59:37.153Z,7.50
2022-08-21T10:02:35.034Z,7.00
2022-08-21T10:05:20.066Z,6.13
2022-08-21T10:07:46.940Z,7.43
2022-08-21T10:10:21.566Z,6.22
2022-08-21T10:13:17.796Z,3.70
2022-08-21T10:16:14.115Z,7.50
2022-08-21T10:18:57.146Z,5.05
2022-08-21T10:21:55.426Z,7.32
2022-08-21T10:24:37.926Z,6.75
2022-08-21T10:27:28.724Z,4.45
2022-08-21T10:30:05.062Z,7.65
2022-08-21T10:33:02.321Z,5.72
2022-08-21T10:35:37.995Z,5.90
2022-08-21T10:38:48.739Z,5.65
2022-08-21T10:42:06.033Z,5.20
2022-08-21T10:45:15.005Z,5.20
2022-08-21T10:47:50.055Z,5.13
2022-08-21T10:50:47.538Z,5.50
2022-08-21T10:53:42.349Z,5.78
2022-08-21T10:56:24.273Z,5.35
2022-08-21T10:59:35.355Z,5.55
2022-08-21T11:02:23.068Z,7.47
2022-08-21T11:05:11.093Z,5.60
2022-08-21T11:07:59.504Z,4.18
2022-08-21T11:10:51.345Z,5.38
2022-08-21T11:13:44.368Z,4.18
2022-08-21T11:16:38.544Z,4.78
2022-08-21T11:19:29.388Z,5.30
2022-08-21T11:22:20.995Z,5.40
2022-08-21T11:25:12.635Z,4.95
2022-08-21T11:28:02.281Z,4.72
2022-08-21T11:31:08.886Z,6.68
2022-08-21T11:34:02.580Z,7.07
2022-08-21T11:37:06.686Z,5.45
2022-08-21T11:39:33.421Z,4.75
2022-08-21T11:42:23.334Z,5.60
2022-08-21T11:45:15.631Z,6.10
2022-08-21T11:48:41.046Z,8.57
2022-08-21T11:51:19.286Z,5.18
2022-08-21T11:54:07.211Z,5.82
2022-08-21T11:56:53.095Z,5.65
2022-08-21T11:59:42.234Z,3.65
2022-08-21T12:02:21.929Z,6.20
2022-08-21T12:05:00.258Z,3.55
2022-08-21T12:07:45.609Z,5.30
2022-08-21T12:10:18.247Z,3.35
2022-08-21T12:12:46.489Z,5.38
2022-08-21T12:15:27.176Z,2.60
2022-08-21T12:17:58.064Z,4.78
2022-08-21T12:20:30.634Z,4.43
2022-08-21T12:23:17.080Z,4.47
2022-08-21T12:26:24.488Z,5.75
2022-08-21T12:28:51.723Z,2.63
2022-08-21T12:31:27.867Z,5.38
2022-08-21T12:34:06.671Z,9.10
2022-08-21T12:37:37.695Z,3.58
2022-08-21T12:40:12.755Z,2.92
2022-08-21T12:42:58.668Z,12.43
2022-08-21T12:45:48.749Z,2.58
2022-08-21T12:48:25.121Z,2.15
2022-08-21T12:51:11.860Z,1.83
2022-08-21T12:53:56.736Z,2.33
2022-08-21T12:56:28.177Z,1.65
2022-08-21T12:59:03.021Z,2.83
2022-08-21T13:01:41.895Z,2.58
2022-08-21T13:04:17.925Z,3.13
2022-08-21T13:06:49.915Z,3.63
2022-08-21T13:09:27.225Z,4.40
2022-08-21T13:11:55.212Z,4.63
2022-08-21T13:14:38.346Z,3.72
2022-08-21T13:17:13.009Z,2.22
2022-08-21T13:20:00.274Z,4.07
2022-08-21T13:22:34.025Z,3.05
2022-08-21T13:25:06.551Z,2.17
2022-08-21T13:27:35.311Z,2.47
2022-08-21T13:30:23.987Z,5.30
2022-08-21T13:32:58.076Z,3.50
2022-08-21T13:35:48.277Z,3.78
2022-08-21T13:38:17.388Z,3.42
2022-08-21T13:41:18.674Z,3.47
2022-08-21T13:43:56.860Z,3.50
2022-08-21T13:46:29.257Z,4.43
2022-08-21T13:48:57.332Z,3.53
2022-08-21T13:51:25.064Z,2.83
2022-08-21T13:53:53.951Z,2.78
2022-08-21T13:56:33.724Z,2.08
2022-08-21T13:59:04.753Z,2.88
2022-08-21T14:01:36.724Z,2.03
2022-08-21T14:04:20.337Z,2.38
2022-08-21T14:06:48.016Z,2.28
2022-08-21T14:09:30.243Z,3.05
2022-08-21T14:12:00.140Z,1.92
2022-08-21T14:14:36.231Z,2.58
2022-08-21T14:17:25.317Z,4.05
2022-08-21T14:19:59.620Z,2.03
2022-08-21T14:22:30.062Z,4.15
2022-08-21T14:25:10.277Z,4.35
2022-08-21T14:27:45.766Z,3.15
2022-08-21T14:30:37.973Z,3.15
2022-08-21T14:33:12.861Z,2.30
2022-08-21T14:35:40.996Z,2.80
2022-08-21T14:38:18.667Z,3.05
2022-08-21T14:40:51.810Z,2.65
2022-08-21T14:43:20.410Z,1.73
2022-08-21T14:45:48.142Z,3.15
2022-08-21T14:48:15.394Z,2.78
2022-08-21T14:50:43.085Z,3.70
2022-08-21T14:53:11.522Z,2.22
2022-08-21T14:56:12.831Z,2.17
2022-08-21T14:58:43.695Z,3.67
2022-08-21T15:01:14.949Z,2.67
2022-08-21T15:03:42.898Z,2.45
2022-08-21T15:06:10.616Z,1.48
2022-08-21T15:08:39.018Z,3.75
2022-08-21T15:11:12.118Z,2.65
2022-08-21T15:13:40.797Z,4.68
2022-08-21T15:16:12.327Z,2.40
2022-08-21T15:18:40.064Z,3.63
2022-08-21T15:21:07.211Z,2.08
2022-08-21T15:23:34.659Z,2.83
2022-08-21T15:26:02.172Z,2.65
2022-08-21T15:28:31.771Z,3.00
2022-08-21T15:31:01.808Z,3.55
2022-08-21T15:33:29.741Z,2.80
2022-08-21T15:35:56.997Z,2.95
2022-08-21T15:38:24.629Z,3.88
2022-08-21T15:40:52.669Z,3.58
2022-08-21T15:43:30.653Z,1.73
2022-08-21T15:46:00.621Z,2.33
2022-08-21T15:48:27.918Z,3.30
2022-08-21T15:50:54.833Z,2.40
2022-08-21T15:53:21.821Z,1.10
2022-08-21T15:55:48.790Z,1.90
2022-08-21T15:58:17.996Z,2.80
2022-08-21T16:00:47.761Z,3.33
2022-08-21T16:03:20.695Z,1.13
2022-08-21T16:05:49.950Z,2.78
2022-08-21T16:08:18.005Z,2.03
2022-08-21T16:10:44.895Z,3.78
2022-08-21T16:13:30.236Z,2.00
2022-08-21T16:15:57.275Z,1.80
2022-08-21T16:18:26.576Z,2.90
2022-08-21T16:20:53.701Z,1.77
2022-08-21T16:23:20.626Z,1.20
2022-08-21T16:25:48.806Z,2.63
2022-08-21T16:28:19.192Z,3.22
2022-08-21T16:30:50.381Z,2.97
2022-08-21T16:33:32.289Z,2.95
2022-08-21T16:36:00.475Z,1.85
2022-08-21T16:38:29.467Z,1.95
2022-08-21T16:40:56.706Z,1.90
2022-08-21T16:43:27.114Z,2.17
2022-08-21T16:45:56.763Z,3.13
2022-08-21T16:48:24.873Z,3.45
2022-08-21T16:50:51.787Z,2.22
2022-08-21T16:53:18.706Z,1.67
2022-08-21T16:55:47.290Z,3.45
2022-08-21T16:58:37.918Z,2.38
2022-08-21T17:01:10.744Z,3.40
2022-08-21T17:03:42.551Z,2.90
2022-08-21T17:06:10.543Z,2.00
2022-08-21T17:08:38.150Z,1.85
2022-08-21T17:11:37.366Z,3.60
2022-08-21T17:14:13.891Z,2.10
2022-08-21T17:16:46.428Z,2.22
2022-08-21T17:19:14.347Z,3.72
2022-08-21T17:21:41.564Z,1.70
2022-08-21T17:24:08.652Z,3.00
2022-08-21T17:26:36.911Z,2.83
2022-08-21T17:29:09.776Z,2.50
2022-08-21T17:31:40.023Z,3.05
2022-08-21T17:34:07.901Z,3.10
2022-08-21T17:36:35.084Z,3.13
2022-08-21T17:39:02.514Z,2.22
2022-08-21T17:41:29.467Z,2.67
2022-08-21T17:43:56.393Z,1.90
2022-08-21T17:46:28.132Z,3.38
2022-08-21T17:48:56.800Z,2.13
2022-08-21T17:51:24.159Z,2.85
2022-08-21T17:53:50.992Z,1.52
2022-08-21T17:56:19.861Z,3.47
2022-08-21T17:58:50.553Z,2.75
2022-08-21T18:01:19.414Z,2.65
2022-08-21T18:03:47.488Z,1.30
2022-08-21T18:06:17.975Z,1.70
2022-08-21T18:08:46.209Z,2.10
2022-08-21T18:11:23.141Z,2.30
2022-08-21T18:13:54.130Z,1.75
2022-08-21T18:16:22.804Z,1.52
2022-08-21T18:18:51.637Z,4.20
2022-08-21T18:21:20.257Z,2.30
2022-08-21T18:23:47.708Z,3.05
2022-08-21T18:26:21.968Z,2.63
2022-08-21T18:28:48.985Z,2.58
2022-08-21T18:31:16.036Z,1.83
2022-08-21T18:33:52.846Z,2.45
2022-08-21T18:36:27.936Z,1.42
2022-08-21T18:39:13.480Z,3.22
2022-08-21T18:41:46.069Z,3.35
2022-08-21T18:44:15.673Z,2.83
2022-08-21T18:46:49.195Z,2.80
2022-08-21T18:49:16.251Z,2.88
2022-08-21T18:51:45.370Z,2.67
2022-08-21T18:54:13.156Z,3.78
2022-08-21T18:56:41.715Z,4.05
2022-08-21T18:59:10.872Z,2.00
2022-08-21T19:01:38.671Z,1.38
2022-08-21T19:04:08.949Z,4.50
2022-08-21T19:06:36.456Z,2.38
2022-08-21T19:09:09.426Z,3.08
2022-08-21T19:11:41.018Z,2.42
2022-08-21T19:14:15.266Z,3.60
2022-08-21T19:19:32.517Z,1.73
2022-08-21T19:21:59.661Z,3.85
2022-08-21T19:24:26.640Z,2.22
2022-08-21T19:26:55.885Z,1.95
2022-08-21T19:29:34.667Z,3.17
2022-08-21T19:32:05.910Z,3.05
2022-08-21T19:34:34.982Z,3.42
2022-08-21T19:37:03.488Z,2.63
2022-08-21T19:39:39.493Z,2.42
2022-08-21T19:42:10.202Z,2.72
2022-08-21T19:44:39.574Z,2.55
2022-08-21T19:47:19.079Z,4.57
2022-08-21T19:49:54.155Z,2.40
2022-08-21T19:52:22.820Z,1.27
2022-08-21T19:54:51.913Z,1.83
2022-08-21T19:57:19.298Z,2.10
2022-08-21T19:59:47.005Z,8.98
2022-08-21T20:02:17.484Z,1.80
2022-08-21T20:07:32.136Z,2.78
2022-08-21T20:09:59.256Z,2.47
2022-08-21T20:12:26.590Z,3.13
2022-08-21T20:14:55.168Z,2.45
2022-08-21T20:17:22.798Z,1.80
2022-08-21T20:19:54.409Z,4.10
2022-08-21T20:22:22.743Z,3.65
2022-08-21T20:24:51.538Z,3.85
2022-08-21T20:27:27.770Z,2.08
2022-08-21T20:29:55.435Z,2.78
2022-08-21T20:32:22.693Z,2.97
2022-08-21T20:34:52.112Z,3.38
2022-08-21T20:37:35.880Z,3.25
2022-08-21T20:40:10.500Z,2.67
2022-08-21T20:45:33.181Z,4.15
2022-08-21T20:48:16.866Z,2.35
2022-08-21T20:51:00.731Z,4.72
2022-08-21T20:53:54.445Z,3.75
2022-08-21T20:56:38.269Z,3.83
2022-08-21T20:59:40.526Z,3.28
2022-08-21T21:02:16.299Z,4.85
2022-08-21T21:05:21.973Z,3.83
2022-08-21T21:08:02.055Z,2.78
2022-08-21T21:10:46.965Z,2.20
2022-08-21T21:13:28.597Z,3.88
2022-08-21T21:16:07.489Z,3.58
2022-08-21T21:18:53.792Z,4.03
2022-08-21T21:21:37.357Z,3.47
2022-08-21T21:24:16.024Z,2.45
2022-08-21T21:26:59.842Z,3.17
2022-08-21T21:29:37.130Z,3.53
2022-08-21T21:32:06.000Z,2.20
2022-08-21T21:34:46.371Z,4.85
2022-08-21T21:37:37.358Z,2.63
2022-08-21T21:40:46.358Z,3.38
2022-08-21T21:43:54.113Z,5.35
2022-08-21T21:46:27.020Z,3.28
2022-08-21T21:49:32.995Z,4.43
2022-08-21T21:52:10.044Z,4.18
2022-08-21T21:54:58.333Z,4.35
2022-08-21T22:00:42.733Z,3.85
2022-08-21T22:03:41.140Z,3.97
2022-08-21T22:06:22.732Z,4.13
2022-08-21T22:09:10.432Z,4.38
2022-08-21T22:12:01.964Z,3.90
2022-08-21T22:14:41.505Z,2.97
2022-08-21T22:17:35.907Z,3.22
2022-08-21T22:20:24.049Z,3.15
2022-08-21T22:22:55.957Z,3.33
2022-08-21T22:25:33.207Z,3.30
2022-08-21T22:28:13.645Z,2.80
2022-08-21T22:30:47.413Z,1.98
2022-08-21T22:33:22.800Z,2.45
2022-08-21T22:35:54.918Z,3.08
2022-08-21T22:38:27.786Z,4.70
2022-08-21T22:41:19.149Z,4.97
2022-08-21T22:49:50.390Z,6.88
2022-08-21T22:52:44.750Z,3.13
2022-08-21T22:55:26.814Z,2.22
2022-08-21T22:58:27.464Z,4.13
2022-08-21T23:01:21.240Z,2.90
2022-08-21T23:03:57.240Z,2.60
2022-08-21T23:06:46.538Z,2.63
2022-08-21T23:09:36.356Z,2.28
2022-08-21T23:12:32.957Z,2.78
2022-08-21T23:15:10.637Z,3.33
2022-08-21T23:18:03.010Z,4.57
2022-08-21T23:20:57.637Z,2.80
2022-08-21T23:23:31.372Z,3.80
2022-08-21T23:26:52.152Z,2.50
2022-08-21T23:30:01.957Z,3.60
2022-08-21T23:33:30.174Z,2.33
2022-08-21T23:36:52.950Z,3.20
2022-08-21T23:39:59.750Z,2.53
2022-08-21T23:42:36.288Z,3.22
2022-08-21T23:45:41.007Z,3.97
2022-08-21T23:48:51.925Z,3.08
2022-08-21T23:51:24.231Z,2.75
2022-08-21T23:54:20.825Z,3.15
2022-08-21T23:57:31.352Z,3.13
